sensor_id;sensor_type;location;lat;lon;timestamp;temperature;humidity
69464;DHT22;56665;41.106;16.688;2023-06-26T00:02:39;24.22;68.08
69464;DHT22;56665;41.106;16.688;2023-06-26T00:05:43;24.21;68.22
69464;DHT22;56665;41.106;16.688;2023-06-26T00:08:46;24.16;68.41
69464;DHT22;56665;41.106;16.688;2023-06-26T00:11:50;24.16;68.32
69464;DHT22;56665;41.106;16.688;2023-06-26T00:14:54;24.12;68.54
69464;DHT22;56665;41.106;16.688;2023-06-26T00:17:59;24.14;68.37
69464;DHT22;56665;41.106;16.688;2023-06-26T00:21:02;24.06;68.17
69464;DHT22;56665;41.106;16.688;2023-06-26T00:24:06;24.08;68.36
69464;DHT22;56665;41.106;16.688;2023-06-26T00:27:10;24.04;68.51
69464;DHT22;56665;41.106;16.688;2023-06-26T00:30:14;24.05;68.58
69464;DHT22;56665;41.106;16.688;2023-06-26T00:33:18;24.05;68.37
69464;DHT22;56665;41.106;16.688;2023-06-26T00:36:21;24.05;68.49
69464;DHT22;56665;41.106;16.688;2023-06-26T00:39:26;24.04;68.33
69464;DHT22;56665;41.106;16.688;2023-06-26T00:42:33;24.09;68.27
69464;DHT22;56665;41.106;16.688;2023-06-26T00:45:37;24.05;68.38
69464;DHT22;56665;41.106;16.688;2023-06-26T00:48:42;24.06;68.51
69464;DHT22;56665;41.106;16.688;2023-06-26T00:51:46;24.08;68.42
69464;DHT22;56665;41.106;16.688;2023-06-26T00:54:50;24.08;68.44
69464;DHT22;56665;41.106;16.688;2023-06-26T00:57:55;24.06;68.39
69464;DHT22;56665;41.106;16.688;2023-06-26T01:00:58;24.05;68.58
69464;DHT22;56665;41.106;16.688;2023-06-26T01:04:04;24.01;68.76
69464;DHT22;56665;41.106;16.688;2023-06-26T01:07:09;24.04;68.47
69464;DHT22;56665;41.106;16.688;2023-06-26T01:10:13;24.01;68.77
69464;DHT22;56665;41.106;16.688;2023-06-26T01:13:17;23.98;68.77
69464;DHT22;56665;41.106;16.688;2023-06-26T01:16:21;24.00;68.96
69464;DHT22;56665;41.106;16.688;2023-06-26T01:19:28;23.94;68.95
69464;DHT22;56665;41.106;16.688;2023-06-26T01:22:45;23.98;68.98
69464;DHT22;56665;41.106;16.688;2023-06-26T01:29:23;23.95;68.90
69464;DHT22;56665;41.106;16.688;2023-06-26T01:32:29;23.93;68.89
69464;DHT22;56665;41.106;16.688;2023-06-26T01:35:33;23.88;69.12
69464;DHT22;56665;41.106;16.688;2023-06-26T01:38:38;23.88;69.12
69464;DHT22;56665;41.106;16.688;2023-06-26T01:41:41;23.87;69.24
69464;DHT22;56665;41.106;16.688;2023-06-26T01:44:47;23.85;69.00
69464;DHT22;56665;41.106;16.688;2023-06-26T01:47:52;23.78;69.49
69464;DHT22;56665;41.106;16.688;2023-06-26T01:50:58;23.80;69.72
69464;DHT22;56665;41.106;16.688;2023-06-26T01:54:10;23.81;69.59
69464;DHT22;56665;41.106;16.688;2023-06-26T01:57:18;23.75;69.70
69464;DHT22;56665;41.106;16.688;2023-06-26T02:00:23;23.80;69.81
69464;DHT22;56665;41.106;16.688;2023-06-26T02:03:27;23.80;69.82
69464;DHT22;56665;41.106;16.688;2023-06-26T02:06:31;23.83;69.66
69464;DHT22;56665;41.106;16.688;2023-06-26T02:09:36;23.88;69.72
69464;DHT22;56665;41.106;16.688;2023-06-26T02:12:39;23.88;69.48
69464;DHT22;56665;41.106;16.688;2023-06-26T02:15:43;23.87;69.50
69464;DHT22;56665;41.106;16.688;2023-06-26T02:18:47;23.85;69.49
69464;DHT22;56665;41.106;16.688;2023-06-26T02:21:51;23.85;69.72
69464;DHT22;56665;41.106;16.688;2023-06-26T02:24:54;23.81;69.74
69464;DHT22;56665;41.106;16.688;2023-06-26T02:27:58;23.80;69.49
69464;DHT22;56665;41.106;16.688;2023-06-26T02:31:02;23.81;69.55
69464;DHT22;56665;41.106;16.688;2023-06-26T02:34:06;23.75;69.50
69464;DHT22;56665;41.106;16.688;2023-06-26T02:37:11;23.70;69.57
69464;DHT22;56665;41.106;16.688;2023-06-26T02:40:15;23.73;69.55
69464;DHT22;56665;41.106;16.688;2023-06-26T02:43:19;23.71;69.60
69464;DHT22;56665;41.106;16.688;2023-06-26T02:46:23;23.70;69.80
69464;DHT22;56665;41.106;16.688;2023-06-26T02:49:29;23.67;69.71
69464;DHT22;56665;41.106;16.688;2023-06-26T02:52:33;23.63;70.11
69464;DHT22;56665;41.106;16.688;2023-06-26T02:55:37;23.64;70.18
69464;DHT22;56665;41.106;16.688;2023-06-26T02:58:41;23.64;70.24
69464;DHT22;56665;41.106;16.688;2023-06-26T03:01:45;23.61;70.47
69464;DHT22;56665;41.106;16.688;2023-06-26T03:04:49;23.63;70.33
69464;DHT22;56665;41.106;16.688;2023-06-26T03:07:53;23.57;70.59
69464;DHT22;56665;41.106;16.688;2023-06-26T03:10:57;23.61;71.08
69464;DHT22;56665;41.106;16.688;2023-06-26T03:14:00;23.65;70.53
69464;DHT22;56665;41.106;16.688;2023-06-26T03:17:04;23.67;70.61
69464;DHT22;56665;41.106;16.688;2023-06-26T03:20:11;23.63;70.73
69464;DHT22;56665;41.106;16.688;2023-06-26T03:23:32;23.64;70.60
69464;DHT22;56665;41.106;16.688;2023-06-26T03:26:35;23.63;70.98
69464;DHT22;56665;41.106;16.688;2023-06-26T03:29:39;23.58;71.02
69464;DHT22;56665;41.106;16.688;2023-06-26T03:32:43;23.64;70.77
69464;DHT22;56665;41.106;16.688;2023-06-26T03:35:48;23.64;70.80
69464;DHT22;56665;41.106;16.688;2023-06-26T03:38:52;23.67;70.62
69464;DHT22;56665;41.106;16.688;2023-06-26T03:42:00;23.68;70.72
69464;DHT22;56665;41.106;16.688;2023-06-26T03:45:04;23.73;70.45
69464;DHT22;56665;41.106;16.688;2023-06-26T03:48:10;23.74;70.37
69464;DHT22;56665;41.106;16.688;2023-06-26T03:51:14;23.78;70.33
69464;DHT22;56665;41.106;16.688;2023-06-26T03:54:18;23.80;70.28
69464;DHT22;56665;41.106;16.688;2023-06-26T03:57:21;23.84;69.95
69464;DHT22;56665;41.106;16.688;2023-06-26T04:00:25;23.88;69.88
69464;DHT22;56665;41.106;16.688;2023-06-26T04:03:29;23.95;69.81
69464;DHT22;56665;41.106;16.688;2023-06-26T04:06:34;24.04;69.47
69464;DHT22;56665;41.106;16.688;2023-06-26T04:09:38;24.05;69.28
69464;DHT22;56665;41.106;16.688;2023-06-26T04:12:41;24.11;69.15
69464;DHT22;56665;41.106;16.688;2023-06-26T04:15:45;24.16;68.89
69464;DHT22;56665;41.106;16.688;2023-06-26T04:18:49;24.22;68.46
69464;DHT22;56665;41.106;16.688;2023-06-26T04:21:53;24.33;68.17
69464;DHT22;56665;41.106;16.688;2023-06-26T04:24:57;24.39;67.97
69464;DHT22;56665;41.106;16.688;2023-06-26T04:28:00;24.45;67.79
69464;DHT22;56665;41.106;16.688;2023-06-26T04:31:04;24.57;67.34
69464;DHT22;56665;41.106;16.688;2023-06-26T04:34:09;24.66;66.84
69464;DHT22;56665;41.106;16.688;2023-06-26T04:37:13;24.73;66.57
69464;DHT22;56665;41.106;16.688;2023-06-26T04:40:22;24.76;66.12
69464;DHT22;56665;41.106;16.688;2023-06-26T04:43:25;24.86;66.09
69464;DHT22;56665;41.106;16.688;2023-06-26T04:46:29;24.97;65.73
69464;DHT22;56665;41.106;16.688;2023-06-26T04:49:33;25.13;65.57
69464;DHT22;56665;41.106;16.688;2023-06-26T04:52:37;25.25;64.90
69464;DHT22;56665;41.106;16.688;2023-06-26T04:55:42;25.35;64.52
69464;DHT22;56665;41.106;16.688;2023-06-26T04:58:45;25.48;64.07
69464;DHT22;56665;41.106;16.688;2023-06-26T05:01:49;25.51;64.25
69464;DHT22;56665;41.106;16.688;2023-06-26T05:04:54;25.68;63.78
69464;DHT22;56665;41.106;16.688;2023-06-26T05:07:58;25.89;63.23
69464;DHT22;56665;41.106;16.688;2023-06-26T05:11:01;26.12;62.73
69464;DHT22;56665;41.106;16.688;2023-06-26T05:14:05;26.26;62.30
69464;DHT22;56665;41.106;16.688;2023-06-26T05:17:10;26.44;61.71
69464;DHT22;56665;41.106;16.688;2023-06-26T05:20:14;26.64;61.34
69464;DHT22;56665;41.106;16.688;2023-06-26T05:23:22;26.80;60.92
69464;DHT22;56665;41.106;16.688;2023-06-26T05:26:31;26.92;60.23
69464;DHT22;56665;41.106;16.688;2023-06-26T05:29:39;27.18;59.40
69464;DHT22;56665;41.106;16.688;2023-06-26T05:32:46;27.36;59.06
69464;DHT22;56665;41.106;16.688;2023-06-26T05:35:52;27.50;58.39
69464;DHT22;56665;41.106;16.688;2023-06-26T05:38:57;27.51;57.34
69464;DHT22;56665;41.106;16.688;2023-06-26T05:42:01;27.71;57.09
69464;DHT22;56665;41.106;16.688;2023-06-26T05:45:06;27.88;56.36
69464;DHT22;56665;41.106;16.688;2023-06-26T05:48:10;28.12;55.58
69464;DHT22;56665;41.106;16.688;2023-06-26T05:51:14;28.40;55.07
69464;DHT22;56665;41.106;16.688;2023-06-26T05:54:18;28.66;54.32
69464;DHT22;56665;41.106;16.688;2023-06-26T05:57:22;28.89;53.92
69464;DHT22;56665;41.106;16.688;2023-06-26T06:00:27;29.11;52.78
69464;DHT22;56665;41.106;16.688;2023-06-26T06:03:31;29.17;52.84
69464;DHT22;56665;41.106;16.688;2023-06-26T06:06:35;29.35;51.83
69464;DHT22;56665;41.106;16.688;2023-06-26T06:09:39;29.58;51.40
69464;DHT22;56665;41.106;16.688;2023-06-26T06:12:43;29.86;50.96
69464;DHT22;56665;41.106;16.688;2023-06-26T06:15:46;29.95;50.75
69464;DHT22;56665;41.106;16.688;2023-06-26T06:18:50;30.16;49.76
69464;DHT22;56665;41.106;16.688;2023-06-26T06:21:54;30.46;49.33
69464;DHT22;56665;41.106;16.688;2023-06-26T06:24:58;30.81;48.99
69464;DHT22;56665;41.106;16.688;2023-06-26T06:28:04;30.88;48.81
69464;DHT22;56665;41.106;16.688;2023-06-26T06:31:07;31.08;47.85
69464;DHT22;56665;41.106;16.688;2023-06-26T06:34:12;31.32;47.39
69464;DHT22;56665;41.106;16.688;2023-06-26T06:37:16;31.30;47.21
69464;DHT22;56665;41.106;16.688;2023-06-26T06:40:20;31.70;46.67
69464;DHT22;56665;41.106;16.688;2023-06-26T06:43:25;32.11;46.14
69464;DHT22;56665;41.106;16.688;2023-06-26T06:46:30;32.51;45.55
69464;DHT22;56665;41.106;16.688;2023-06-26T06:49:35;32.92;44.62
69464;DHT22;56665;41.106;16.688;2023-06-26T06:52:40;33.23;43.88
69464;DHT22;56665;41.106;16.688;2023-06-26T06:55:44;33.46;42.98
69464;DHT22;56665;41.106;16.688;2023-06-26T06:58:48;34.48;41.82
69464;DHT22;56665;41.106;16.688;2023-06-26T07:01:55;35.88;39.61
69464;DHT22;56665;41.106;16.688;2023-06-26T07:04:59;37.45;37.78
69464;DHT22;56665;41.106;16.688;2023-06-26T07:08:03;38.96;35.51
69464;DHT22;56665;41.106;16.688;2023-06-26T07:11:07;40.90;32.64
69464;DHT22;56665;41.106;16.688;2023-06-26T07:14:10;42.25;31.19
69464;DHT22;56665;41.106;16.688;2023-06-26T07:17:14;43.62;29.73
69464;DHT22;56665;41.106;16.688;2023-06-26T07:20:18;44.60;28.92
69464;DHT22;56665;41.106;16.688;2023-06-26T07:23:22;44.84;28.49
69464;DHT22;56665;41.106;16.688;2023-06-26T07:26:25;45.22;27.95
69464;DHT22;56665;41.106;16.688;2023-06-26T07:29:29;45.84;27.61
69464;DHT22;56665;41.106;16.688;2023-06-26T07:32:33;45.94;27.40
69464;DHT22;56665;41.106;16.688;2023-06-26T07:35:37;46.47;26.98
69464;DHT22;56665;41.106;16.688;2023-06-26T07:38:41;46.72;26.49
69464;DHT22;56665;41.106;16.688;2023-06-26T07:41:44;46.74;26.47
69464;DHT22;56665;41.106;16.688;2023-06-26T07:44:50;46.71;26.67
69464;DHT22;56665;41.106;16.688;2023-06-26T07:47:54;47.01;26.33
69464;DHT22;56665;41.106;16.688;2023-06-26T07:50:59;46.61;26.57
69464;DHT22;56665;41.106;16.688;2023-06-26T07:54:03;46.35;26.71
69464;DHT22;56665;41.106;16.688;2023-06-26T07:57:06;46.61;26.55
69464;DHT22;56665;41.106;16.688;2023-06-26T08:00:11;46.54;26.67
69464;DHT22;56665;41.106;16.688;2023-06-26T08:03:18;46.28;26.98
69464;DHT22;56665;41.106;16.688;2023-06-26T08:06:22;46.62;26.66
69464;DHT22;56665;41.106;16.688;2023-06-26T08:09:28;46.38;26.75
69464;DHT22;56665;41.106;16.688;2023-06-26T08:12:32;45.86;27.19
69464;DHT22;56665;41.106;16.688;2023-06-26T08:15:36;46.20;26.85
69464;DHT22;56665;41.106;16.688;2023-06-26T08:18:42;45.89;26.75
69464;DHT22;56665;41.106;16.688;2023-06-26T08:21:46;46.01;26.95
69464;DHT22;56665;41.106;16.688;2023-06-26T08:24:51;45.83;26.88
69464;DHT22;56665;41.106;16.688;2023-06-26T08:27:55;45.86;26.70
69464;DHT22;56665;41.106;16.688;2023-06-26T08:31:00;45.80;27.25
69464;DHT22;56665;41.106;16.688;2023-06-26T08:34:04;45.66;27.23
69464;DHT22;56665;41.106;16.688;2023-06-26T08:37:08;45.16;27.55
69464;DHT22;56665;41.106;16.688;2023-06-26T08:40:12;45.18;27.04
69464;DHT22;56665;41.106;16.688;2023-06-26T08:43:16;45.15;27.17
69464;DHT22;56665;41.106;16.688;2023-06-26T08:46:19;44.91;27.25
69464;DHT22;56665;41.106;16.688;2023-06-26T08:52:56;45.11;27.60
69464;DHT22;56665;41.106;16.688;2023-06-26T08:56:02;44.61;27.90
69464;DHT22;56665;41.106;16.688;2023-06-26T08:59:06;44.28;28.16
69464;DHT22;56665;41.106;16.688;2023-06-26T09:02:12;44.30;28.22
69464;DHT22;56665;41.106;16.688;2023-06-26T09:05:16;43.78;28.54
69464;DHT22;56665;41.106;16.688;2023-06-26T09:08:20;43.22;29.68
69464;DHT22;56665;41.106;16.688;2023-06-26T09:11:24;42.37;30.13
69464;DHT22;56665;41.106;16.688;2023-06-26T09:14:29;41.03;31.52
69464;DHT22;56665;41.106;16.688;2023-06-26T09:17:39;39.49;33.29
69464;DHT22;56665;41.106;16.688;2023-06-26T09:20:44;38.67;34.66
69464;DHT22;56665;41.106;16.688;2023-06-26T09:23:49;38.82;34.46
69464;DHT22;56665;41.106;16.688;2023-06-26T09:26:54;38.95;34.22
69464;DHT22;56665;41.106;16.688;2023-06-26T09:29:58;38.99;33.92
69464;DHT22;56665;41.106;16.688;2023-06-26T09:33:19;38.52;34.43
69464;DHT22;56665;41.106;16.688;2023-06-26T09:36:23;38.91;34.13
69464;DHT22;56665;41.106;16.688;2023-06-26T09:39:31;38.91;34.12
69464;DHT22;56665;41.106;16.688;2023-06-26T09:42:34;38.76;34.76
69464;DHT22;56665;41.106;16.688;2023-06-26T09:45:39;38.99;34.67
69464;DHT22;56665;41.106;16.688;2023-06-26T09:48:43;39.31;34.11
69464;DHT22;56665;41.106;16.688;2023-06-26T09:51:48;39.40;33.91
69464;DHT22;56665;41.106;16.688;2023-06-26T09:55:09;38.85;34.56
69464;DHT22;56665;41.106;16.688;2023-06-26T09:58:15;38.32;35.41
69464;DHT22;56665;41.106;16.688;2023-06-26T10:01:20;37.77;36.42
69464;DHT22;56665;41.106;16.688;2023-06-26T10:04:24;37.77;36.29
69464;DHT22;56665;41.106;16.688;2023-06-26T10:07:28;37.76;36.54
69464;DHT22;56665;41.106;16.688;2023-06-26T10:10:34;37.59;36.49
69464;DHT22;56665;41.106;16.688;2023-06-26T10:13:42;36.68;38.09
69464;DHT22;56665;41.106;16.688;2023-06-26T10:16:50;36.71;38.09
69464;DHT22;56665;41.106;16.688;2023-06-26T10:19:55;36.51;38.29
69464;DHT22;56665;41.106;16.688;2023-06-26T10:23:02;36.10;39.03
69464;DHT22;56665;41.106;16.688;2023-06-26T10:26:08;36.16;38.81
69464;DHT22;56665;41.106;16.688;2023-06-26T10:29:14;35.75;39.39
69464;DHT22;56665;41.106;16.688;2023-06-26T10:32:20;35.99;39.13
69464;DHT22;56665;41.106;16.688;2023-06-26T10:35:25;35.64;39.65
69464;DHT22;56665;41.106;16.688;2023-06-26T10:38:57;35.33;40.07
69464;DHT22;56665;41.106;16.688;2023-06-26T10:42:11;35.59;40.11
69464;DHT22;56665;41.106;16.688;2023-06-26T10:45:17;35.92;39.92
69464;DHT22;56665;41.106;16.688;2023-06-26T10:48:22;35.89;39.98
69464;DHT22;56665;41.106;16.688;2023-06-26T10:51:27;36.02;39.90
69464;DHT22;56665;41.106;16.688;2023-06-26T10:54:31;36.19;39.46
69464;DHT22;56665;41.106;16.688;2023-06-26T10:57:36;36.48;39.15
69464;DHT22;56665;41.106;16.688;2023-06-26T11:00:49;36.17;39.84
69464;DHT22;56665;41.106;16.688;2023-06-26T11:07:24;36.05;39.90
69464;DHT22;56665;41.106;16.688;2023-06-26T11:10:28;35.78;40.51
69464;DHT22;56665;41.106;16.688;2023-06-26T11:13:34;35.69;40.49
69464;DHT22;56665;41.106;16.688;2023-06-26T11:16:39;35.74;40.14
69464;DHT22;56665;41.106;16.688;2023-06-26T11:19:47;35.27;40.65
69464;DHT22;56665;41.106;16.688;2023-06-26T11:22:52;35.55;40.74
69464;DHT22;56665;41.106;16.688;2023-06-26T11:25:57;35.62;40.64
69464;DHT22;56665;41.106;16.688;2023-06-26T11:29:14;35.39;40.89
69464;DHT22;56665;41.106;16.688;2023-06-26T11:32:19;34.90;41.58
69464;DHT22;56665;41.106;16.688;2023-06-26T11:35:23;34.56;41.97
69464;DHT22;56665;41.106;16.688;2023-06-26T11:38:39;34.57;42.10
69464;DHT22;56665;41.106;16.688;2023-06-26T11:41:45;34.40;43.25
69464;DHT22;56665;41.106;16.688;2023-06-26T11:44:50;34.42;42.68
69464;DHT22;56665;41.106;16.688;2023-06-26T11:47:58;34.42;42.50
69464;DHT22;56665;41.106;16.688;2023-06-26T11:51:05;34.69;43.07
69464;DHT22;56665;41.106;16.688;2023-06-26T11:54:08;34.43;44.74
69464;DHT22;56665;41.106;16.688;2023-06-26T11:57:15;34.53;44.70
69464;DHT22;56665;41.106;16.688;2023-06-26T12:00:21;34.80;43.85
69464;DHT22;56665;41.106;16.688;2023-06-26T12:03:25;34.77;43.97
69464;DHT22;56665;41.106;16.688;2023-06-26T12:06:32;34.80;43.37
69464;DHT22;56665;41.106;16.688;2023-06-26T12:09:42;34.70;43.97
69464;DHT22;56665;41.106;16.688;2023-06-26T12:12:47;34.74;43.64
69464;DHT22;56665;41.106;16.688;2023-06-26T12:15:50;35.06;43.83
69464;DHT22;56665;41.106;16.688;2023-06-26T12:18:59;35.27;42.68
69464;DHT22;56665;41.106;16.688;2023-06-26T12:22:06;35.39;42.48
69464;DHT22;56665;41.106;16.688;2023-06-26T12:25:10;35.39;43.20
69464;DHT22;56665;41.106;16.688;2023-06-26T12:28:17;35.30;43.08
69464;DHT22;56665;41.106;16.688;2023-06-26T12:31:21;34.90;44.18
69464;DHT22;56665;41.106;16.688;2023-06-26T12:34:34;34.91;44.34
69464;DHT22;56665;41.106;16.688;2023-06-26T12:37:37;35.10;42.70
69464;DHT22;56665;41.106;16.688;2023-06-26T12:40:46;34.91;44.32
69464;DHT22;56665;41.106;16.688;2023-06-26T12:43:55;34.83;44.50
69464;DHT22;56665;41.106;16.688;2023-06-26T12:47:00;34.84;45.18
69464;DHT22;56665;41.106;16.688;2023-06-26T12:50:05;34.94;44.93
69464;DHT22;56665;41.106;16.688;2023-06-26T12:53:09;35.14;44.86
69464;DHT22;56665;41.106;16.688;2023-06-26T12:56:13;35.10;44.48
69464;DHT22;56665;41.106;16.688;2023-06-26T12:59:16;35.14;43.91
69464;DHT22;56665;41.106;16.688;2023-06-26T13:02:20;35.26;43.93
69464;DHT22;56665;41.106;16.688;2023-06-26T13:05:24;35.15;44.37
69464;DHT22;56665;41.106;16.688;2023-06-26T13:08:28;34.98;43.65
69464;DHT22;56665;41.106;16.688;2023-06-26T13:11:33;34.80;43.85
69464;DHT22;56665;41.106;16.688;2023-06-26T13:14:37;34.90;43.58
69464;DHT22;56665;41.106;16.688;2023-06-26T13:17:42;34.94;43.58
69464;DHT22;56665;41.106;16.688;2023-06-26T13:20:46;35.06;43.29
69464;DHT22;56665;41.106;16.688;2023-06-26T13:23:50;34.82;44.22
69464;DHT22;56665;41.106;16.688;2023-06-26T13:26:53;34.73;44.58
69464;DHT22;56665;41.106;16.688;2023-06-26T13:29:57;34.74;44.12
69464;DHT22;56665;41.106;16.688;2023-06-26T13:33:01;35.03;43.16
69464;DHT22;56665;41.106;16.688;2023-06-26T13:36:05;34.93;42.55
69464;DHT22;56665;41.106;16.688;2023-06-26T13:39:08;35.08;42.68
69464;DHT22;56665;41.106;16.688;2023-06-26T13:42:12;35.04;43.21
69464;DHT22;56665;41.106;16.688;2023-06-26T13:45:17;34.63;42.65
69464;DHT22;56665;41.106;16.688;2023-06-26T13:48:21;34.42;43.59
69464;DHT22;56665;41.106;16.688;2023-06-26T13:51:25;34.35;42.96
69464;DHT22;56665;41.106;16.688;2023-06-26T13:54:29;34.35;43.56
69464;DHT22;56665;41.106;16.688;2023-06-26T13:57:33;34.29;44.13
69464;DHT22;56665;41.106;16.688;2023-06-26T14:00:37;33.84;45.08
69464;DHT22;56665;41.106;16.688;2023-06-26T14:03:40;33.84;45.23
69464;DHT22;56665;41.106;16.688;2023-06-26T14:06:44;33.97;44.58
69464;DHT22;56665;41.106;16.688;2023-06-26T14:09:48;33.90;44.63
69464;DHT22;56665;41.106;16.688;2023-06-26T14:12:52;33.97;44.01
69464;DHT22;56665;41.106;16.688;2023-06-26T14:15:56;33.95;43.62
69464;DHT22;56665;41.106;16.688;2023-06-26T14:18:59;34.01;43.75
69464;DHT22;56665;41.106;16.688;2023-06-26T14:22:03;33.65;43.58
69464;DHT22;56665;41.106;16.688;2023-06-26T14:25:08;33.31;44.38
69464;DHT22;56665;41.106;16.688;2023-06-26T14:28:12;32.99;43.97
69464;DHT22;56665;41.106;16.688;2023-06-26T14:31:16;32.65;44.18
69464;DHT22;56665;41.106;16.688;2023-06-26T14:34:20;32.55;44.87
69464;DHT22;56665;41.106;16.688;2023-06-26T14:37:25;32.46;45.29
69464;DHT22;56665;41.106;16.688;2023-06-26T14:40:29;32.62;45.14
69464;DHT22;56665;41.106;16.688;2023-06-26T14:43:32;32.34;45.52
69464;DHT22;56665;41.106;16.688;2023-06-26T14:46:36;32.21;45.82
69464;DHT22;56665;41.106;16.688;2023-06-26T14:49:40;32.20;45.86
69464;DHT22;56665;41.106;16.688;2023-06-26T14:52:44;31.95;46.58
69464;DHT22;56665;41.106;16.688;2023-06-26T14:55:47;32.05;46.02
69464;DHT22;56665;41.106;16.688;2023-06-26T14:58:51;32.07;46.29
69464;DHT22;56665;41.106;16.688;2023-06-26T15:01:55;31.95;47.22
69464;DHT22;56665;41.106;16.688;2023-06-26T15:04:59;31.78;47.59
69464;DHT22;56665;41.106;16.688;2023-06-26T15:08:03;31.78;48.14
69464;DHT22;56665;41.106;16.688;2023-06-26T15:11:07;31.76;48.42
69464;DHT22;56665;41.106;16.688;2023-06-26T15:14:11;31.67;48.42
69464;DHT22;56665;41.106;16.688;2023-06-26T15:17:14;31.43;49.40
69464;DHT22;56665;41.106;16.688;2023-06-26T15:20:18;31.06;50.12
69464;DHT22;56665;41.106;16.688;2023-06-26T15:23:22;30.84;50.02
69464;DHT22;56665;41.106;16.688;2023-06-26T15:26:25;30.81;49.42
69464;DHT22;56665;41.106;16.688;2023-06-26T15:29:29;30.81;49.48
69464;DHT22;56665;41.106;16.688;2023-06-26T15:32:33;30.72;49.19
69464;DHT22;56665;41.106;16.688;2023-06-26T15:35:37;30.57;49.58
69464;DHT22;56665;41.106;16.688;2023-06-26T15:38:40;30.38;49.48
69464;DHT22;56665;41.106;16.688;2023-06-26T15:41:44;30.28;49.83
69464;DHT22;56665;41.106;16.688;2023-06-26T15:44:48;30.19;49.92
69464;DHT22;56665;41.106;16.688;2023-06-26T15:47:53;30.12;50.18
69464;DHT22;56665;41.106;16.688;2023-06-26T15:50:56;30.06;50.33
69464;DHT22;56665;41.106;16.688;2023-06-26T15:54:00;29.98;50.08
69464;DHT22;56665;41.106;16.688;2023-06-26T15:57:04;29.79;50.36
69464;DHT22;56665;41.106;16.688;2023-06-26T16:00:08;29.55;50.62
69464;DHT22;56665;41.106;16.688;2023-06-26T16:03:19;29.42;50.58
69464;DHT22;56665;41.106;16.688;2023-06-26T16:06:22;29.31;50.63
69464;DHT22;56665;41.106;16.688;2023-06-26T16:09:27;29.27;50.93
69464;DHT22;56665;41.106;16.688;2023-06-26T16:12:31;29.28;51.28
69464;DHT22;56665;41.106;16.688;2023-06-26T16:15:34;29.18;51.58
69464;DHT22;56665;41.106;16.688;2023-06-26T16:18:39;29.10;51.57
69464;DHT22;56665;41.106;16.688;2023-06-26T16:21:43;29.01;52.33
69464;DHT22;56665;41.106;16.688;2023-06-26T16:24:46;28.94;52.46
69464;DHT22;56665;41.106;16.688;2023-06-26T16:27:50;28.87;53.16
69464;DHT22;56665;41.106;16.688;2023-06-26T16:30:54;28.84;53.35
69464;DHT22;56665;41.106;16.688;2023-06-26T16:33:58;28.72;53.11
69464;DHT22;56665;41.106;16.688;2023-06-26T16:37:02;28.60;52.94
69464;DHT22;56665;41.106;16.688;2023-06-26T16:40:10;28.40;53.74
69464;DHT22;56665;41.106;16.688;2023-06-26T16:43:14;28.39;53.94
69464;DHT22;56665;41.106;16.688;2023-06-26T16:46:18;28.29;54.23
69464;DHT22;56665;41.106;16.688;2023-06-26T16:49:22;28.31;54.13
69464;DHT22;56665;41.106;16.688;2023-06-26T16:52:26;28.32;54.13
69464;DHT22;56665;41.106;16.688;2023-06-26T16:55:30;28.29;54.53
69464;DHT22;56665;41.106;16.688;2023-06-26T16:58:34;28.29;54.56
69464;DHT22;56665;41.106;16.688;2023-06-26T17:01:37;28.24;54.39
69464;DHT22;56665;41.106;16.688;2023-06-26T17:04:41;28.24;54.81
69464;DHT22;56665;41.106;16.688;2023-06-26T17:07:44;28.25;54.84
69464;DHT22;56665;41.106;16.688;2023-06-26T17:10:48;28.25;55.20
69464;DHT22;56665;41.106;16.688;2023-06-26T17:13:52;28.21;55.37
69464;DHT22;56665;41.106;16.688;2023-06-26T17:16:56;28.21;55.83
69464;DHT22;56665;41.106;16.688;2023-06-26T17:20:01;28.18;56.13
69464;DHT22;56665;41.106;16.688;2023-06-26T17:23:06;28.08;55.96
69464;DHT22;56665;41.106;16.688;2023-06-26T17:26:10;28.11;56.16
69464;DHT22;56665;41.106;16.688;2023-06-26T17:29:13;28.08;56.48
69464;DHT22;56665;41.106;16.688;2023-06-26T17:32:17;28.02;56.62
69464;DHT22;56665;41.106;16.688;2023-06-26T17:35:21;28.00;56.75
69464;DHT22;56665;41.106;16.688;2023-06-26T17:38:26;28.02;56.87
69464;DHT22;56665;41.106;16.688;2023-06-26T17:41:30;28.09;56.60
69464;DHT22;56665;41.106;16.688;2023-06-26T17:44:34;28.11;56.57
69464;DHT22;56665;41.106;16.688;2023-06-26T17:47:40;28.19;56.64
69464;DHT22;56665;41.106;16.688;2023-06-26T17:50:44;28.17;56.79
69464;DHT22;56665;41.106;16.688;2023-06-26T17:53:48;28.12;57.27
69464;DHT22;56665;41.106;16.688;2023-06-26T17:56:54;28.12;57.65
69464;DHT22;56665;41.106;16.688;2023-06-26T17:59:58;28.09;58.15
69464;DHT22;56665;41.106;16.688;2023-06-26T18:03:02;28.09;58.29
69464;DHT22;56665;41.106;16.688;2023-06-26T18:06:06;28.14;58.54
69464;DHT22;56665;41.106;16.688;2023-06-26T18:09:10;28.12;58.95
69464;DHT22;56665;41.106;16.688;2023-06-26T18:12:14;27.92;59.71
69464;DHT22;56665;41.106;16.688;2023-06-26T18:15:19;27.85;60.12
69464;DHT22;56665;41.106;16.688;2023-06-26T18:18:22;27.78;60.71
69464;DHT22;56665;41.106;16.688;2023-06-26T18:21:26;27.70;61.25
69464;DHT22;56665;41.106;16.688;2023-06-26T18:24:30;27.69;61.81
69464;DHT22;56665;41.106;16.688;2023-06-26T18:27:34;27.63;62.25
69464;DHT22;56665;41.106;16.688;2023-06-26T18:30:38;27.61;62.66
69464;DHT22;56665;41.106;16.688;2023-06-26T18:33:42;27.54;63.70
69464;DHT22;56665;41.106;16.688;2023-06-26T18:36:47;27.50;64.08
69464;DHT22;56665;41.106;16.688;2023-06-26T18:39:51;27.43;64.66
69464;DHT22;56665;41.106;16.688;2023-06-26T18:42:55;27.34;64.67
69464;DHT22;56665;41.106;16.688;2023-06-26T18:45:59;27.24;66.06
69464;DHT22;56665;41.106;16.688;2023-06-26T18:49:04;27.19;66.26
69464;DHT22;56665;41.106;16.688;2023-06-26T18:52:08;27.15;67.24
69464;DHT22;56665;41.106;16.688;2023-06-26T18:55:12;27.11;67.76
69464;DHT22;56665;41.106;16.688;2023-06-26T18:58:16;27.08;68.10
69464;DHT22;56665;41.106;16.688;2023-06-26T19:01:19;26.99;68.41
69464;DHT22;56665;41.106;16.688;2023-06-26T19:04:24;26.96;68.83
69464;DHT22;56665;41.106;16.688;2023-06-26T19:07:28;26.92;69.00
69464;DHT22;56665;41.106;16.688;2023-06-26T19:10:32;26.88;69.45
69464;DHT22;56665;41.106;16.688;2023-06-26T19:13:38;26.85;69.61
69464;DHT22;56665;41.106;16.688;2023-06-26T19:16:41;26.72;69.89
69464;DHT22;56665;41.106;16.688;2023-06-26T19:19:45;26.55;70.46